Time;durP1;ratioP1;P1;durP2;ratioP2;P2;SDS_P1;SDS_P2;PMS_P1;PMS_P2;Temp;Humidity;BMP_temperature;BMP_pressure;BME280_temperature;BME280_humidity;BME280_pressure;Samples;Min_cycle;Max_cycle;Signal;HPM_P1;HPM_P2
2022/06/07 00:02:03;;;;;;;22.70;15.68;;;;;;;14.48;91.61;101375.28;5016676;28;20484;-72
2022/06/07 00:04:28;;;;;;;21.80;16.40;;;;;;;14.47;91.21;101369.22;5018291;28;20041;-72
2022/06/07 00:06:54;;;;;;;21.30;16.90;;;;;;;14.50;91.41;101371.03;5021693;28;20087;-72
2022/06/07 00:09:19;;;;;;;24.13;17.30;;;;;;;14.48;91.11;101363.19;5009168;28;21965;-72
2022/06/07 00:11:44;;;;;;;23.15;16.80;;;;;;;14.48;91.45;101367.50;5021309;28;20040;-72
2022/06/07 00:14:10;;;;;;;26.73;18.23;;;;;;;14.42;91.77;101365.63;5026853;28;20588;-72
2022/06/07 00:16:36;;;;;;;25.45;18.63;;;;;;;14.41;91.75;101361.31;5020295;28;20040;-73
2022/06/07 00:19:02;;;;;;;26.30;18.20;;;;;;;14.36;91.40;101365.50;5018638;28;20018;-72
2022/06/07 00:21:29;;;;;;;24.63;18.35;;;;;;;14.43;92.15;101366.50;5024216;28;22281;-72
2022/06/07 00:23:55;;;;;;;23.10;18.60;;;;;;;14.45;91.88;101363.13;5021479;28;20029;-72
2022/06/07 00:26:21;;;;;;;26.23;17.77;;;;;;;14.45;91.32;101350.19;5024548;28;20416;-72
2022/06/07 00:28:47;;;;;;;25.70;19.17;;;;;;;14.45;90.95;101350.19;5023484;28;20045;-72
2022/06/07 00:31:13;;;;;;;23.83;19.48;;;;;;;14.47;91.18;101348.53;5024236;28;20045;-72
2022/06/07 00:33:39;;;;;;;25.83;19.88;;;;;;;14.43;90.96;101346.66;5023102;28;20038;-72
2022/06/07 00:36:08;;;;;;;24.02;19.42;;;;;;;14.42;91.81;101342.34;5025818;28;20118;-72
2022/06/07 00:38:34;;;;;;;24.92;18.67;;;;;;;14.41;91.70;101343.19;5024304;28;20033;-72
2022/06/07 00:41:00;;;;;;;25.75;19.77;;;;;;;14.37;92.50;101340.50;5021378;28;20167;-72
2022/06/07 00:43:26;;;;;;;29.15;19.73;;;;;;;14.42;92.30;101344.94;5013920;28;20127;-72
2022/06/07 00:45:51;;;;;;;29.83;20.77;;;;;;;14.37;91.31;101340.50;5019356;28;20097;-72
2022/06/07 00:48:17;;;;;;;24.60;19.42;;;;;;;14.43;91.84;101341.50;5013138;28;20034;-72
2022/06/07 00:51:01;;;;;;;26.55;19.65;;;;;;;14.44;91.64;101332.91;5024320;28;20033;-72
2022/06/07 00:53:29;;;;;;;32.28;20.40;;;;;;;14.40;92.40;101335.41;5018671;28;21146;-72
2022/06/07 00:55:56;;;;;;;29.35;20.75;;;;;;;14.42;92.11;101331.13;5020171;28;20029;-72
2022/06/07 00:58:23;;;;;;;28.63;20.13;;;;;;;14.41;91.78;101335.44;5021815;28;20037;-72
2022/06/07 01:00:49;;;;;;;26.23;20.33;;;;;;;14.42;91.33;101329.41;5014418;28;20108;-72
2022/06/07 01:03:15;;;;;;;28.02;19.92;;;;;;;14.40;90.95;101325.06;5019630;28;20121;-72
2022/06/07 01:05:41;;;;;;;29.27;21.17;;;;;;;14.37;90.82;101324.97;5019517;28;20032;-72
2022/06/07 01:10:54;;;;;;;28.08;19.73;;;;;;;14.41;90.65;101321.63;5022468;28;20044;-72
2022/06/07 01:13:25;;;;;;;25.52;19.75;;;;;;;14.40;90.87;101322.47;5017084;28;20044;-72
2022/06/07 01:15:55;;;;;;;26.42;20.77;;;;;;;14.42;90.36;101324.22;5018855;28;20152;-72
2022/06/07 01:18:20;;;;;;;27.35;20.00;;;;;;;14.38;90.53;101322.44;5019088;28;20391;-73
2022/06/07 01:20:46;;;;;;;25.70;19.55;;;;;;;14.37;90.38;101318.09;5021038;28;20025;-72
2022/06/07 01:23:11;;;;;;;25.65;19.05;;;;;;;14.41;90.97;101317.31;5025998;28;20740;-72
2022/06/07 01:25:37;;;;;;;25.85;18.90;;;;;;;14.38;90.88;101319.88;5024146;28;20124;-73
2022/06/07 01:28:03;;;;;;;25.02;18.65;;;;;;;14.40;90.55;101314.72;5023674;28;20029;-72
2022/06/07 01:30:28;;;;;;;24.23;18.08;;;;;;;14.41;90.13;101322.50;5023235;28;20135;-72
2022/06/07 01:32:54;;;;;;;23.40;18.23;;;;;;;14.36;91.05;101316.34;5021038;28;20039;-72
2022/06/07 01:35:19;;;;;;;24.00;18.02;;;;;;;14.37;90.54;101314.63;5022038;28;20761;-72
2022/06/07 01:37:44;;;;;;;23.40;18.00;;;;;;;14.36;90.09;101300.81;5020648;28;20025;-72
2022/06/07 01:42:55;;;;;;;23.38;18.60;;;;;;;14.32;91.42;101301.63;5028465;28;20059;-72
2022/06/07 01:45:21;;;;;;;23.95;18.23;;;;;;;14.36;91.04;101306.00;5026593;28;20483;-72
2022/06/07 01:47:47;;;;;;;24.83;17.40;;;;;;;14.36;90.88;101298.25;5020735;28;20037;-72
2022/06/07 01:50:12;;;;;;;22.92;17.50;;;;;;;14.37;90.56;101293.94;5024056;28;20025;-72
2022/06/07 01:52:38;;;;;;;25.83;17.48;;;;;;;14.31;90.25;101288.66;5018582;28;20439;-72
2022/06/07 01:55:06;;;;;;;24.65;17.35;;;;;;;14.36;89.94;101289.63;5014259;28;20737;-72
2022/06/07 01:57:31;;;;;;;20.58;16.58;;;;;;;14.33;90.42;101285.25;5022188;28;20305;-72
2022/06/07 01:59:58;;;;;;;22.40;15.93;;;;;;;14.29;89.70;101280.00;5021913;28;20511;-72
2022/06/07 02:02:24;;;;;;;20.98;15.90;;;;;;;14.32;89.41;101280.94;5028338;28;20037;-72
2022/06/07 02:04:51;;;;;;;22.95;16.23;;;;;;;14.27;89.01;101279.97;5022905;28;20108;-72
2022/06/07 02:07:18;;;;;;;22.95;15.30;;;;;;;14.28;88.02;101281.72;5025970;28;20040;-72
2022/06/07 02:09:44;;;;;;;20.88;14.25;;;;;;;14.25;88.05;101286.81;5020377;28;20032;-73
2022/06/07 02:12:09;;;;;;;17.90;14.15;;;;;;;14.23;89.00;101285.91;5022525;28;20036;-73
2022/06/07 02:14:35;;;;;;;19.83;14.27;;;;;;;14.21;88.23;101285.03;5027122;28;20512;-72
2022/06/07 02:17:00;;;;;;;20.65;13.18;;;;;;;14.26;88.12;101279.91;5026719;28;20404;-72
2022/06/07 02:19:26;;;;;;;21.02;12.85;;;;;;;14.23;88.28;101280.75;5010448;28;20037;-72
2022/06/07 02:21:52;;;;;;;16.13;12.85;;;;;;;14.22;88.19;101271.25;5022796;28;20057;-72
2022/06/07 02:24:17;;;;;;;22.70;13.10;;;;;;;14.23;88.47;101273.84;5018773;28;20044;-72
2022/06/07 02:26:50;;;;;;;16.90;12.35;;;;;;;14.25;88.17;101273.00;5021632;28;20064;-72
2022/06/07 02:29:25;;;;;;;17.23;12.20;;;;;;;14.23;88.23;101273.84;5018890;28;20072;-72
2022/06/07 02:31:58;;;;;;;15.45;11.02;;;;;;;14.23;88.24;101271.25;5022009;28;20408;-72
2022/06/07 02:34:25;;;;;;;14.02;11.23;;;;;;;14.18;88.29;101266.84;5022671;28;20116;-72
2022/06/07 02:36:55;;;;;;;14.93;10.93;;;;;;;14.20;87.13;101271.22;5024984;28;20025;-72
2022/06/07 02:39:22;;;;;;;16.02;10.85;;;;;;;14.15;87.14;101277.16;5023146;28;20629;-73
2022/06/07 02:41:48;;;;;;;14.32;10.70;;;;;;;14.13;86.76;101271.91;5023473;28;20041;-73
2022/06/07 02:44:14;;;;;;;15.02;10.65;;;;;;;14.16;87.37;101268.53;5021816;28;20148;-72
2022/06/07 02:46:39;;;;;;;14.20;10.82;;;;;;;14.06;88.25;101262.28;5026053;28;20120;-72
2022/06/07 02:49:05;;;;;;;15.43;9.95;;;;;;;14.11;87.63;101262.41;5019006;28;20029;-73
2022/06/07 02:51:30;;;;;;;12.95;9.82;;;;;;;14.11;88.13;101255.50;5020591;28;20035;-73
2022/06/07 02:53:56;;;;;;;15.45;10.07;;;;;;;14.08;87.10;101252.88;5019701;28;20063;-73
2022/06/07 02:56:22;;;;;;;17.48;9.60;;;;;;;14.09;86.91;101257.19;5018390;28;20037;-73
2022/06/07 02:58:47;;;;;;;12.02;8.80;;;;;;;14.10;86.69;101253.78;5020055;28;20045;-72
2022/06/07 03:01:13;;;;;;;13.32;9.68;;;;;;;14.08;87.41;101262.34;5015213;28;20079;-73
2022/06/07 03:03:39;;;;;;;12.65;9.25;;;;;;;14.07;86.62;101263.16;5025353;28;20033;-73
2022/06/07 03:06:04;;;;;;;11.18;8.77;;;;;;;14.06;87.01;101259.72;5022749;28;20025;-73
2022/06/07 03:08:30;;;;;;;11.43;7.85;;;;;;;14.04;85.28;101258.81;5022147;28;20041;-73
2022/06/07 03:10:55;;;;;;;12.85;7.93;;;;;;;14.05;86.67;101264.84;5020290;28;20044;-73
2022/06/07 03:13:21;;;;;;;10.68;7.88;;;;;;;14.02;86.60;101268.28;5019344;28;20112;-73
2022/06/07 03:15:47;;;;;;;12.70;7.72;;;;;;;13.98;86.56;101256.09;5020445;28;20029;-73
2022/06/07 03:18:13;;;;;;;10.65;8.02;;;;;;;14.01;86.26;101269.09;5025845;28;20114;-73
2022/06/07 03:20:38;;;;;;;14.63;7.90;;;;;;;13.97;86.39;101271.59;5020506;28;20078;-73
2022/06/07 03:23:04;;;;;;;13.32;7.65;;;;;;;13.93;86.49;101270.66;5024757;28;20065;-73
2022/06/07 03:25:30;;;;;;;12.98;7.72;;;;;;;13.96;86.91;101275.91;5018764;28;20029;-73
2022/06/07 03:27:55;;;;;;;11.38;7.35;;;;;;;13.97;86.93;101269.88;5026647;28;20060;-73
2022/06/07 03:30:21;;;;;;;12.32;7.55;;;;;;;13.98;86.37;101269.03;5022567;28;20144;-73
2022/06/07 03:32:47;;;;;;;11.07;7.63;;;;;;;13.92;86.09;101280.13;5021764;28;20037;-73
2022/06/07 03:35:14;;;;;;;10.85;6.85;;;;;;;13.91;85.83;101280.97;5018533;28;21038;-73
2022/06/07 03:37:40;;;;;;;9.57;6.65;;;;;;;13.91;86.04;101285.28;5022830;28;20034;-72
2022/06/07 03:40:11;;;;;;;14.63;7.10;;;;;;;13.93;85.45;101281.88;5024110;28;20067;-73
2022/06/07 03:42:36;;;;;;;10.18;7.03;;;;;;;13.86;86.45;101289.47;5021125;28;20442;-73
2022/06/07 03:45:02;;;;;;;12.65;6.70;;;;;;;13.88;85.62;101282.59;5022398;28;20037;-73
2022/06/07 03:47:28;;;;;;;9.48;6.07;;;;;;;13.90;85.12;101291.28;5022512;28;20061;-73
2022/06/07 03:49:53;;;;;;;9.27;6.18;;;;;;;13.91;85.30;101286.13;5019589;28;20457;-73
2022/06/07 03:52:19;;;;;;;8.95;5.78;;;;;;;13.93;85.06;101284.44;5021953;28;20047;-73
2022/06/07 03:54:45;;;;;;;12.13;5.55;;;;;;;13.89;85.93;101299.84;5022962;28;20032;-73
2022/06/07 03:57:12;;;;;;;11.27;6.18;;;;;;;13.88;85.12;101298.97;5024255;28;20107;-73
2022/06/07 03:59:37;;;;;;;8.10;6.25;;;;;;;13.92;86.47;101299.94;5023531;28;20154;-73
2022/06/07 04:02:04;;;;;;;11.25;5.45;;;;;;;13.87;84.69;101311.88;5024771;28;20069;-73
2022/06/07 04:04:29;;;;;;;10.98;5.90;;;;;;;13.87;84.91;101311.88;5021517;28;20469;-73
2022/06/07 04:09:59;;;;;;;10.10;5.70;;;;;;;13.87;84.88;101301.53;4975158;28;20038;-73
2022/06/07 04:12:24;;;;;;;8.52;5.88;;;;;;;13.86;84.43;101303.25;4982589;28;20138;-73
2022/06/07 04:14:49;;;;;;;7.78;5.68;;;;;;;13.80;86.09;101300.53;4989566;28;20040;-73
2022/06/07 04:17:15;;;;;;;9.38;6.32;;;;;;;13.81;85.47;101297.09;5024037;28;21304;-73
2022/06/07 04:19:41;;;;;;;11.05;6.18;;;;;;;13.85;86.40;101298.06;5020584;28;20386;-73
2022/06/07 04:22:06;;;;;;;8.50;6.10;;;;;;;13.82;85.92;101304.03;5020032;28;20578;-73
2022/06/07 04:24:32;;;;;;;9.15;6.47;;;;;;;13.80;85.19;101299.66;5021370;28;20033;-73
2022/06/07 04:26:58;;;;;;;10.98;6.97;;;;;;;13.78;84.84;101301.34;5016733;28;20449;-73
2022/06/07 04:29:25;;;;;;;10.73;6.10;;;;;;;13.81;85.57;101310.03;5019006;28;20029;-73
2022/06/07 04:31:50;;;;;;;9.85;6.43;;;;;;;13.78;85.19;101307.41;5016544;28;20036;-72
2022/06/07 04:34:18;;;;;;;14.00;7.07;;;;;;;13.83;85.18;101304.88;5018520;28;20029;-73
2022/06/07 04:36:44;;;;;;;13.15;6.63;;;;;;;13.85;85.00;101314.44;5028397;28;20041;-73
2022/06/07 04:39:09;;;;;;;10.95;6.80;;;;;;;13.83;85.43;101312.63;5017225;28;20062;-73
2022/06/07 04:41:35;;;;;;;9.63;6.65;;;;;;;13.87;84.71;101317.06;5015390;28;20036;-73
2022/06/07 04:44:00;;;;;;;11.88;6.97;;;;;;;13.84;84.66;101311.84;5020659;28;20043;-73
2022/06/07 04:46:27;;;;;;;13.93;7.35;;;;;;;13.85;85.09;101313.56;5021345;28;20037;-73
2022/06/07 04:48:53;;;;;;;8.98;6.63;;;;;;;13.86;85.26;101310.16;5021152;28;20025;-73
2022/06/07 04:51:27;;;;;;;9.32;7.32;;;;;;;13.86;86.55;101311.00;5021068;28;20530;-73
2022/06/07 04:53:54;;;;;;;9.48;7.13;;;;;;;13.89;86.38;101315.38;5017712;28;20037;-73
2022/06/07 04:56:25;;;;;;;13.82;7.50;;;;;;;13.87;86.00;101311.88;5018703;28;20022;-73
2022/06/07 04:58:51;;;;;;;11.35;7.10;;;;;;;13.90;86.12;101317.13;5017533;28;20420;-73
2022/06/07 05:01:20;;;;;;;10.60;6.95;;;;;;;13.93;85.52;101318.06;5023645;28;20601;-72
2022/06/07 05:03:45;;;;;;;11.65;7.43;;;;;;;13.92;86.42;101316.31;5023114;28;20738;-73
2022/06/07 05:06:31;;;;;;;9.63;7.35;;;;;;;13.98;86.99;101315.56;5021748;28;20029;-73
2022/06/07 05:08:58;;;;;;;11.27;7.85;;;;;;;13.97;86.60;101313.84;5022635;28;20480;-72
2022/06/07 05:11:25;;;;;;;11.82;8.15;;;;;;;13.99;85.93;101321.63;5019423;28;20105;-73
2022/06/07 05:13:59;;;;;;;15.35;8.95;;;;;;;13.99;86.44;101321.63;5025190;28;20034;-75
2022/06/07 05:16:25;;;;;;;12.63;8.50;;;;;;;14.01;86.16;101314.75;5011024;28;20498;-73
2022/06/07 05:18:52;;;;;;;12.77;8.82;;;;;;;14.03;86.03;101320.84;5015645;28;20043;-72
2022/06/07 05:21:19;;;;;;;14.57;10.00;;;;;;;14.03;85.78;101323.44;5011266;28;20053;-74
2022/06/07 05:23:44;;;;;;;14.93;10.07;;;;;;;14.07;85.36;101320.06;5013971;28;20045;-73
2022/06/07 05:26:22;;;;;;;15.65;10.05;;;;;;;14.12;86.23;101327.06;5034069;28;20030;-72
2022/06/07 05:28:47;;;;;;;13.52;9.68;;;;;;;14.14;86.89;101322.81;5014735;28;20034;-73
2022/06/07 05:31:13;;;;;;;13.68;9.68;;;;;;;14.13;86.71;101320.19;5023294;28;21165;-73
2022/06/07 05:33:38;;;;;;;15.95;10.27;;;;;;;14.15;86.45;101319.41;5018875;28;20038;-73
2022/06/07 05:36:04;;;;;;;15.48;10.32;;;;;;;14.16;86.22;101326.31;5021047;28;20053;-74
2022/06/07 05:38:30;;;;;;;19.02;10.80;;;;;;;14.17;86.04;101324.59;5021241;28;20037;-74
2022/06/07 05:40:55;;;;;;;17.73;10.27;;;;;;;14.18;86.40;101324.63;5027039;28;20036;-73
2022/06/07 05:43:21;;;;;;;14.35;10.25;;;;;;;14.21;85.97;101329.00;5023832;28;20033;-73
2022/06/07 05:45:48;;;;;;;19.10;11.02;;;;;;;14.25;87.04;101335.94;5024881;28;20499;-73
2022/06/07 05:48:14;;;;;;;18.23;11.98;;;;;;;14.25;87.43;101328.19;5025303;28;20409;-74
2022/06/07 05:50:40;;;;;;;21.48;12.05;;;;;;;14.23;86.40;101324.72;5023206;28;20117;-74
2022/06/07 05:53:05;;;;;;;20.80;11.98;;;;;;;14.20;86.55;101324.66;5026409;28;20052;-73
2022/06/07 05:55:31;;;;;;;17.77;11.60;;;;;;;14.21;87.02;101331.59;5012889;28;20084;-74
2022/06/07 05:57:56;;;;;;;20.35;12.35;;;;;;;14.26;86.89;101327.38;5028995;28;20028;-73
2022/06/07 06:00:22;;;;;;;15.75;12.00;;;;;;;14.31;86.83;101336.06;5028601;28;20034;-73
2022/06/07 06:02:48;;;;;;;17.70;11.90;;;;;;;14.32;87.37;101331.78;5034170;28;20499;-73
2022/06/07 06:05:13;;;;;;;17.08;12.13;;;;;;;14.29;87.00;101337.78;5028877;28;20534;-74
2022/06/07 06:10:19;;;;;;;16.63;11.70;;;;;;;14.29;87.82;101323.97;5023364;28;20068;-74
2022/06/07 06:10:25;;;;;;;16.25;11.13;;;;;;;14.34;86.62;101333.56;5027683;28;20098;-74
2022/06/07 06:12:50;;;;;;;15.73;11.63;;;;;;;14.27;87.06;101336.00;5020027;28;20480;-74
2022/06/07 06:15:16;;;;;;;17.83;11.38;;;;;;;14.30;86.72;101333.47;5023990;28;20052;-74
2022/06/07 06:17:42;;;;;;;18.10;11.85;;;;;;;14.29;87.03;101336.91;5022682;28;20049;-74
2022/06/07 06:20:09;;;;;;;16.23;11.25;;;;;;;14.32;87.28;101343.03;5027533;28;20114;-73
2022/06/07 06:22:35;;;;;;;19.02;11.45;;;;;;;14.36;88.00;101339.63;5026534;28;20571;-73
2022/06/07 06:25:01;;;;;;;17.02;12.00;;;;;;;14.37;87.17;101332.75;5023820;28;20029;-73
2022/06/07 06:27:28;;;;;;;17.77;11.45;;;;;;;14.41;86.36;101338.03;5026807;28;20029;-73
2022/06/07 06:29:53;;;;;;;17.90;11.75;;;;;;;14.43;86.37;101332.88;5019600;28;20026;-74
2022/06/07 06:32:19;;;;;;;19.83;13.10;;;;;;;14.48;86.95;101334.75;5035875;28;20555;-74
2022/06/07 06:34:44;;;;;;;19.23;12.18;;;;;;;14.54;87.17;101333.13;5029810;28;20037;-73
2022/06/07 06:37:10;;;;;;;23.45;13.13;;;;;;;14.63;86.47;101336.75;5028586;28;20486;-73
2022/06/07 06:39:35;;;;;;;21.20;13.20;;;;;;;14.81;86.86;101331.06;5028161;28;20044;-73
2022/06/07 06:42:01;;;;;;;20.88;13.35;;;;;;;14.92;86.47;101336.41;5029683;28;20028;-73
2022/06/07 06:44:26;;;;;;;19.88;14.38;;;;;;;15.00;86.16;101334.84;5030318;28;20423;-73
2022/06/07 06:46:52;;;;;;;22.48;15.70;;;;;;;15.11;86.66;101340.22;5025806;28;20748;-73
2022/06/07 06:49:20;;;;;;;25.00;15.93;;;;;;;15.15;87.08;101339.41;5026245;28;20144;-72
2022/06/07 06:51:47;;;;;;;26.35;15.50;;;;;;;15.20;86.02;101332.59;5012713;28;20061;-73
2022/06/07 06:54:15;;;;;;;26.90;16.85;;;;;;;15.31;87.29;101332.75;5029997;28;20025;-73
2022/06/07 06:56:43;;;;;;;25.98;16.60;;;;;;;15.37;87.64;101328.56;5032863;28;20022;-73
2022/06/07 06:59:09;;;;;;;23.35;16.83;;;;;;;15.41;86.86;101339.81;5024515;28;20037;-73
2022/06/07 07:01:38;;;;;;;24.30;16.42;;;;;;;15.43;86.20;101344.19;5023867;28;20034;-73
2022/06/07 07:04:10;;;;;;;23.17;17.60;;;;;;;15.42;84.97;101345.06;5031204;28;20029;-72
2022/06/07 07:06:37;;;;;;;24.80;17.15;;;;;;;15.40;85.62;101346.72;5027264;28;20380;-72
2022/06/07 07:09:04;;;;;;;28.27;17.38;;;;;;;15.43;85.52;101349.38;5026884;28;20029;-73
2022/06/07 07:11:35;;;;;;;28.40;17.95;;;;;;;15.45;86.36;101355.44;5028780;28;20037;-73
2022/06/07 07:14:01;;;;;;;24.08;17.17;;;;;;;15.46;86.63;101353.72;5027960;28;20025;-72
2022/06/07 07:16:29;;;;;;;29.80;17.92;;;;;;;15.52;86.52;101344.31;5029438;28;20037;-72
2022/06/07 07:18:56;;;;;;;24.60;17.52;;;;;;;15.52;87.12;101349.50;5028347;28;20053;-72
2022/06/07 07:21:25;;;;;;;25.90;17.88;;;;;;;15.53;86.88;101346.09;5025548;28;20038;-73
2022/06/07 07:23:50;;;;;;;25.38;17.60;;;;;;;15.63;87.11;101354.03;5026512;28;20600;-73
2022/06/07 07:26:22;;;;;;;27.48;18.35;;;;;;;15.76;87.12;101345.56;5027618;28;20115;-72
2022/06/07 07:28:52;;;;;;;26.65;18.67;;;;;;;15.77;86.35;101348.22;5030718;28;20479;-73
2022/06/07 07:31:31;;;;;;;24.40;19.13;;;;;;;15.84;86.00;101348.31;5029996;28;20041;-73
2022/06/07 07:33:57;;;;;;;27.20;20.50;;;;;;;15.82;86.39;101345.66;5029399;28;22763;-73
2022/06/07 07:36:23;;;;;;;24.92;20.08;;;;;;;15.87;85.87;101348.34;5021365;28;20021;-73
2022/06/07 07:38:49;;;;;;;28.77;20.10;;;;;;;15.90;85.93;101344.06;5023528;28;20115;-72
2022/06/07 07:41:16;;;;;;;28.80;20.92;;;;;;;15.92;86.20;101352.72;5023751;28;20453;-72
2022/06/07 07:43:42;;;;;;;29.13;20.83;;;;;;;15.94;85.57;101350.16;5027704;28;20074;-72
2022/06/07 07:46:08;;;;;;;30.67;21.10;;;;;;;16.00;87.15;101350.25;5028876;28;20037;-73
2022/06/07 07:48:34;;;;;;;26.48;20.65;;;;;;;16.04;86.73;101349.44;5032755;28;20029;-72
2022/06/07 07:51:07;;;;;;;26.95;21.10;;;;;;;16.06;86.20;101350.31;5023565;28;20033;-71
2022/06/07 07:53:33;;;;;;;27.73;21.83;;;;;;;16.06;84.92;101346.00;5023968;28;20037;-72
2022/06/07 07:55:58;;;;;;;30.00;21.83;;;;;;;16.07;85.55;101346.88;5029243;28;20036;-73
2022/06/07 07:58:24;;;;;;;27.00;19.75;;;;;;;16.09;85.85;101345.19;5031762;28;20040;-72
2022/06/07 08:00:49;;;;;;;26.00;19.65;;;;;;;16.08;85.41;101344.31;5028409;28;20032;-71
2022/06/07 08:03:16;;;;;;;27.42;21.70;;;;;;;16.10;87.03;101349.53;5029096;28;20032;-72
2022/06/07 08:05:42;;;;;;;29.05;22.00;;;;;;;16.16;85.78;101341.81;5027362;28;20047;-72
2022/06/07 08:08:08;;;;;;;26.40;20.60;;;;;;;16.23;85.10;101345.34;5030416;28;20120;-72
2022/06/07 08:10:34;;;;;;;26.92;21.20;;;;;;;16.27;84.77;101352.34;5017395;28;20112;-72
2022/06/07 08:13:00;;;;;;;28.20;22.08;;;;;;;16.33;86.35;101342.91;5020843;28;20056;-72
2022/06/07 08:15:29;;;;;;;26.95;22.75;;;;;;;16.35;84.94;101346.38;5029459;28;20029;-73
2022/06/07 08:17:55;;;;;;;28.02;23.73;;;;;;;16.37;84.72;101343.78;5026349;28;20034;-73
2022/06/07 08:20:22;;;;;;;28.73;22.27;;;;;;;16.44;84.33;101343.03;5026525;28;20036;-72
2022/06/07 08:22:48;;;;;;;26.98;22.63;;;;;;;16.50;84.27;101348.31;5023935;28;20087;-73
2022/06/07 08:25:13;;;;;;;27.50;22.08;;;;;;;16.59;84.00;101339.72;5027301;28;20077;-72
2022/06/07 08:27:39;;;;;;;25.13;21.60;;;;;;;16.61;82.97;101345.78;5025202;28;20072;-72
2022/06/07 08:30:05;;;;;;;28.30;22.52;;;;;;;16.67;83.13;101342.41;5023053;28;20037;-72
2022/06/07 08:32:31;;;;;;;27.52;21.92;;;;;;;16.65;83.64;101347.59;5027538;28;20030;-72
2022/06/07 08:37:41;;;;;;;29.33;23.75;;;;;;;16.72;83.14;101348.56;5028574;28;20068;-72
2022/06/07 08:40:27;;;;;;;30.58;23.50;;;;;;;16.78;84.33;101344.28;5030192;28;20037;-72
2022/06/07 08:42:58;;;;;;;27.35;23.40;;;;;;;16.89;82.71;101340.06;5022902;28;20025;-72
2022/06/07 08:45:29;;;;;;;28.65;22.50;;;;;;;16.98;82.78;101341.88;5018409;28;20067;-72
2022/06/07 08:48:06;;;;;;;30.95;23.67;;;;;;;17.08;80.94;101332.44;5025359;28;20796;-73
2022/06/07 08:50:40;;;;;;;24.50;21.63;;;;;;;17.24;81.82;101338.66;5026631;28;20029;-72
2022/06/07 08:53:19;;;;;;;25.63;20.88;;;;;;;17.33;81.15;101333.53;5027417;28;20037;-72
2022/06/07 08:55:51;;;;;;;27.45;20.55;;;;;;;17.53;82.21;101336.25;5022373;28;20056;-72
2022/06/07 08:58:22;;;;;;;27.00;21.17;;;;;;;17.66;80.87;101328.56;5032188;28;20025;-72
2022/06/07 09:01:10;;;;;;;26.80;21.38;;;;;;;17.78;80.53;101325.22;5030776;28;20030;-72
2022/06/07 09:03:53;;;;;;;23.15;20.40;;;;;;;17.89;79.51;101335.66;5016369;28;20049;-74
2022/06/07 09:06:29;;;;;;;23.02;20.60;;;;;;;17.97;78.80;101339.19;5024417;28;20025;-73
2022/06/07 09:08:58;;;;;;;25.35;20.75;;;;;;;18.02;77.93;101329.69;5024009;28;20036;-72
2022/06/07 09:14:47;;;;;;;23.42;18.35;;;;;;;18.09;75.88;101339.25;5024598;28;20048;-72
2022/06/07 09:17:19;;;;;;;23.27;19.33;;;;;;;18.10;76.58;101330.56;5024648;28;20029;-72
2022/06/07 09:19:48;;;;;;;20.55;17.73;;;;;;;18.11;76.58;101332.31;5017259;28;20026;-72
2022/06/07 09:22:29;;;;;;;22.30;17.50;;;;;;;18.14;77.34;101328.84;5020575;28;20118;-71
2022/06/07 09:25:25;;;;;;;19.60;16.75;;;;;;;18.18;77.86;101326.25;5026033;28;20531;-73
2022/06/07 09:27:51;;;;;;;19.85;16.98;;;;;;;18.25;75.32;101332.38;5022227;28;20124;-72
2022/06/07 09:30:16;;;;;;;19.73;16.48;;;;;;;18.32;75.65;101330.66;5033180;28;20139;-72
2022/06/07 09:32:45;;;;;;;22.10;16.80;;;;;;;18.34;75.96;101336.75;5026549;28;20029;-72
2022/06/07 09:35:23;;;;;;;20.70;18.45;;;;;;;18.28;74.81;101331.53;5026064;28;20033;-72
2022/06/07 09:38:13;;;;;;;21.15;18.60;;;;;;;18.21;76.04;101326.28;5028891;28;20048;-73
2022/06/07 09:40:56;;;;;;;21.67;18.38;;;;;;;18.17;76.77;101327.13;5030851;28;20029;-72
2022/06/07 09:43:28;;;;;;;20.30;18.17;;;;;;;18.19;75.88;101328.00;5027134;28;20055;-72
2022/06/07 09:45:58;;;;;;;20.45;16.52;;;;;;;18.12;72.86;101336.66;5031210;28;20555;-72
2022/06/07 09:48:51;;;;;;;16.85;14.77;;;;;;;18.20;74.47;101331.47;5034640;28;20090;-73
2022/06/07 09:51:35;;;;;;;18.25;14.20;;;;;;;18.29;73.46;101331.53;5025012;28;20069;-72
2022/06/07 09:54:14;;;;;;;17.63;14.23;;;;;;;18.45;73.63;101322.91;5021815;28;20464;-71
2022/06/07 09:57:05;;;;;;;15.15;13.55;;;;;;;18.57;74.08;101329.88;5029457;28;20036;-73
2022/06/07 09:59:49;;;;;;;19.05;14.07;;;;;;;18.58;72.08;101330.75;5033382;28;20033;-74
2022/06/07 10:02:39;;;;;;;18.55;13.38;;;;;;;18.58;71.10;101322.94;5027774;28;20104;-72
2022/06/07 10:05:25;;;;;;;14.50;12.93;;;;;;;18.61;71.75;101321.19;5025392;28;20056;-74
2022/06/07 10:08:17;;;;;;;17.88;13.95;;;;;;;18.66;71.59;101326.41;5018610;28;21609;-74
2022/06/07 10:11:04;;;;;;;16.60;13.30;;;;;;;18.70;72.76;101320.41;5031143;28;20071;-71
2022/06/07 10:13:47;;;;;;;16.33;14.18;;;;;;;18.74;73.06;101323.00;5024051;28;20029;-73
2022/06/07 10:16:23;;;;;;;16.65;14.55;;;;;;;18.80;70.96;101323.88;5029353;28;20068;-73
2022/06/07 10:19:10;;;;;;;16.58;14.48;;;;;;;18.77;70.60;101322.13;5024265;28;20057;-73
2022/06/07 10:22:04;;;;;;;17.23;15.05;;;;;;;18.77;71.55;101313.47;5025803;28;20044;-72
2022/06/07 10:24:48;;;;;;;16.73;14.60;;;;;;;18.77;73.88;101313.47;5028539;28;20032;-72
2022/06/07 10:27:29;;;;;;;18.23;16.23;;;;;;;18.71;73.94;101311.72;5036225;28;20037;-72
2022/06/07 10:30:13;;;;;;;17.17;13.68;;;;;;;18.67;72.08;101309.97;5027698;28;20128;-72
2022/06/07 10:32:57;;;;;;;15.73;13.00;;;;;;;18.67;73.52;101316.03;5024483;28;20029;-72
2022/06/07 10:35:44;;;;;;;18.30;13.02;;;;;;;18.77;73.68;101318.66;5027425;28;20108;-72
2022/06/07 10:38:31;;;;;;;17.08;13.35;;;;;;;18.70;72.75;101309.97;5027094;28;20096;-72
2022/06/07 10:41:02;;;;;;;17.10;13.65;;;;;;;18.74;72.16;101314.31;5027432;28;20033;-72
2022/06/07 10:43:41;;;;;;;17.05;13.27;;;;;;;19.02;72.81;101304.78;5023781;28;20097;-72
2022/06/07 10:46:11;;;;;;;18.50;13.57;;;;;;;19.28;72.31;101310.84;5033600;28;20159;-72
2022/06/07 10:48:48;;;;;;;14.73;12.73;;;;;;;19.48;71.87;101296.97;5032086;28;20482;-72
2022/06/07 10:54:54;;;;;;;14.18;11.18;;;;;;;19.87;71.30;101302.97;5026315;28;20099;-73
2022/06/07 10:57:29;;;;;;;12.57;10.13;;;;;;;19.68;70.21;101297.81;5034556;28;20029;-72
2022/06/07 10:59:57;;;;;;;12.20;9.88;;;;;;;19.45;66.92;101292.59;5027555;28;20040;-73
2022/06/07 11:02:31;;;;;;;12.10;10.10;;;;;;;19.41;68.93;101293.47;5033931;28;20538;-72
2022/06/07 11:10:49;;;;;;;12.90;9.05;;;;;;;19.48;70.50;101283.91;5025129;28;20056;-72
2022/06/07 11:13:17;;;;;;;12.10;9.27;;;;;;;19.44;69.53;101288.25;5027747;28;20488;-72
2022/06/07 11:15:58;;;;;;;12.27;8.83;;;;;;;19.48;68.79;101286.53;5030137;28;20064;-73
2022/06/07 11:18:25;;;;;;;11.70;8.52;;;;;;;19.41;67.38;101277.81;5028305;28;20480;-72
2022/06/07 11:21:29;;;;;;;9.50;8.25;;;;;;;19.49;70.00;101285.66;5020982;28;20037;-74
2022/06/07 11:24:22;;;;;;;13.98;8.63;;;;;;;19.45;68.38;101286.50;5026976;28;20063;-72
2022/06/07 11:26:50;;;;;;;10.85;8.20;;;;;;;19.39;66.60;101289.13;5020560;28;20057;-73
2022/06/07 11:29:22;;;;;;;11.27;8.85;;;;;;;19.32;66.14;101290.88;5025692;28;20032;-74
2022/06/07 11:31:48;;;;;;;11.30;9.25;;;;;;;19.22;64.73;101294.34;5022115;28;20041;-73
2022/06/07 11:34:30;;;;;;;11.75;8.43;;;;;;;19.21;65.79;101295.22;5016239;28;20381;-73
2022/06/07 11:37:21;;;;;;;9.15;8.25;;;;;;;19.26;66.02;101291.75;5017717;28;20053;-73
2022/06/07 11:39:56;;;;;;;12.27;8.00;;;;;;;19.30;66.20;101295.25;5030478;28;20041;-72
2022/06/07 11:42:34;;;;;;;10.25;8.52;;;;;;;19.35;65.08;101285.66;5019834;28;20042;-72
2022/06/07 11:45:16;;;;;;;9.82;8.65;;;;;;;19.39;64.74;101286.53;5018109;28;20029;-74
2022/06/07 11:47:45;;;;;;;10.60;8.25;;;;;;;19.44;63.96;101290.00;5015145;28;20040;-72